sensor_id;sensor_type;location;lat;lon;timestamp;P1;durP1;ratioP1;P2;durP2;ratioP2
16436;SDS011;8328;52.206;21.006;2024-01-11T00:00:42;451.08;;;70.15;;
16436;SDS011;8328;52.206;21.006;2024-01-11T00:03:08;479.35;;;81.80;;
16436;SDS011;8328;52.206;21.006;2024-01-11T00:05:34;396.73;;;57.50;;
16436;SDS011;8328;52.206;21.006;2024-01-11T00:08:00;55.60;;;31.40;;
16436;SDS011;8328;52.206;21.006;2024-01-11T00:10:26;436.20;;;67.53;;
16436;SDS011;8328;52.206;21.006;2024-01-11T00:12:52;402.70;;;72.13;;
16436;SDS011;8328;52.206;21.006;2024-01-11T00:15:18;240.00;;;49.20;;
16436;SDS011;8328;52.206;21.006;2024-01-11T00:17:43;280.50;;;51.70;;
16436;SDS011;8328;52.206;21.006;2024-01-11T00:20:09;464.00;;;122.13;;
16436;SDS011;8328;52.206;21.006;2024-01-11T00:22:35;148.82;;;49.58;;
16436;SDS011;8328;52.206;21.006;2024-01-11T00:25:05;116.13;;;39.33;;
16436;SDS011;8328;52.206;21.006;2024-01-11T00:27:36;362.92;;;57.42;;
16436;SDS011;8328;52.206;21.006;2024-01-11T00:30:02;431.75;;;65.72;;
16436;SDS011;8328;52.206;21.006;2024-01-11T00:32:28;420.90;;;64.63;;
16436;SDS011;8328;52.206;21.006;2024-01-11T00:34:54;409.17;;;55.87;;
16436;SDS011;8328;52.206;21.006;2024-01-11T00:37:20;389.00;;;60.00;;
16436;SDS011;8328;52.206;21.006;2024-01-11T00:39:50;446.30;;;62.75;;
16436;SDS011;8328;52.206;21.006;2024-01-11T00:42:15;436.07;;;68.10;;
16436;SDS011;8328;52.206;21.006;2024-01-11T00:44:41;404.10;;;58.70;;
16436;SDS011;8328;52.206;21.006;2024-01-11T00:47:07;339.15;;;56.45;;
16436;SDS011;8328;52.206;21.006;2024-01-11T00:49:33;461.23;;;78.67;;
16436;SDS011;8328;52.206;21.006;2024-01-11T00:51:59;434.03;;;64.90;;
16436;SDS011;8328;52.206;21.006;2024-01-11T00:54:24;429.23;;;58.80;;
16436;SDS011;8328;52.206;21.006;2024-01-11T00:56:50;438.10;;;58.03;;
16436;SDS011;8328;52.206;21.006;2024-01-11T00:59:16;472.30;;;71.07;;
16436;SDS011;8328;52.206;21.006;2024-01-11T01:01:48;445.43;;;63.50;;
16436;SDS011;8328;52.206;21.006;2024-01-11T01:04:15;425.15;;;59.55;;
16436;SDS011;8328;52.206;21.006;2024-01-11T01:06:41;462.20;;;68.93;;
16436;SDS011;8328;52.206;21.006;2024-01-11T01:09:07;493.55;;;79.85;;
16436;SDS011;8328;52.206;21.006;2024-01-11T01:11:33;439.67;;;55.97;;
16436;SDS011;8328;52.206;21.006;2024-01-11T01:13:59;453.27;;;62.90;;
16436;SDS011;8328;52.206;21.006;2024-01-11T01:16:25;463.50;;;64.30;;
16436;SDS011;8328;52.206;21.006;2024-01-11T01:18:50;451.73;;;89.70;;
16436;SDS011;8328;52.206;21.006;2024-01-11T01:21:16;154.10;;;41.47;;
16436;SDS011;8328;52.206;21.006;2024-01-11T01:23:42;258.57;;;53.43;;
16436;SDS011;8328;52.206;21.006;2024-01-11T01:26:08;402.97;;;57.83;;
16436;SDS011;8328;52.206;21.006;2024-01-11T01:28:33;419.47;;;62.53;;
16436;SDS011;8328;52.206;21.006;2024-01-11T01:30:59;426.97;;;67.40;;
16436;SDS011;8328;52.206;21.006;2024-01-11T01:33:25;419.47;;;65.47;;
16436;SDS011;8328;52.206;21.006;2024-01-11T01:35:50;455.10;;;77.10;;
16436;SDS011;8328;52.206;21.006;2024-01-11T01:38:16;392.23;;;55.80;;
16436;SDS011;8328;52.206;21.006;2024-01-11T01:40:42;438.10;;;68.60;;
16436;SDS011;8328;52.206;21.006;2024-01-11T01:43:09;112.18;;;42.00;;
16436;SDS011;8328;52.206;21.006;2024-01-11T01:45:35;150.07;;;37.30;;
16436;SDS011;8328;52.206;21.006;2024-01-11T01:48:07;31.33;;;16.17;;
16436;SDS011;8328;52.206;21.006;2024-01-11T01:50:33;171.23;;;36.30;;
16436;SDS011;8328;52.206;21.006;2024-01-11T01:52:59;426.47;;;71.63;;
16436;SDS011;8328;52.206;21.006;2024-01-11T01:55:31;410.75;;;61.65;;
16436;SDS011;8328;52.206;21.006;2024-01-11T01:57:57;399.65;;;55.60;;
16436;SDS011;8328;52.206;21.006;2024-01-11T02:00:24;403.50;;;56.22;;
16436;SDS011;8328;52.206;21.006;2024-01-11T02:02:51;404.85;;;54.72;;
16436;SDS011;8328;52.206;21.006;2024-01-11T02:05:18;422.65;;;61.15;;
16436;SDS011;8328;52.206;21.006;2024-01-11T02:07:44;426.77;;;60.83;;
16436;SDS011;8328;52.206;21.006;2024-01-11T02:10:10;426.27;;;57.78;;
16436;SDS011;8328;52.206;21.006;2024-01-11T02:12:36;420.07;;;58.90;;
16436;SDS011;8328;52.206;21.006;2024-01-11T02:15:04;407.23;;;57.95;;
16436;SDS011;8328;52.206;21.006;2024-01-11T02:17:31;394.95;;;53.15;;
16436;SDS011;8328;52.206;21.006;2024-01-11T02:19:57;428.88;;;67.00;;
16436;SDS011;8328;52.206;21.006;2024-01-11T02:22:31;428.67;;;63.87;;
16436;SDS011;8328;52.206;21.006;2024-01-11T02:25:00;412.42;;;58.92;;
16436;SDS011;8328;52.206;21.006;2024-01-11T02:27:27;406.95;;;56.35;;
16436;SDS011;8328;52.206;21.006;2024-01-11T02:29:53;403.08;;;59.47;;
16436;SDS011;8328;52.206;21.006;2024-01-11T02:32:19;397.92;;;55.50;;
16436;SDS011;8328;52.206;21.006;2024-01-11T02:34:45;380.15;;;56.92;;
16436;SDS011;8328;52.206;21.006;2024-01-11T02:37:12;313.23;;;50.47;;
16436;SDS011;8328;52.206;21.006;2024-01-11T02:39:38;293.67;;;50.47;;
16436;SDS011;8328;52.206;21.006;2024-01-11T02:42:09;271.42;;;50.88;;
16436;SDS011;8328;52.206;21.006;2024-01-11T02:44:35;262.48;;;52.22;;
16436;SDS011;8328;52.206;21.006;2024-01-11T02:47:01;236.40;;;44.75;;
16436;SDS011;8328;52.206;21.006;2024-01-11T02:49:31;199.27;;;51.70;;
16436;SDS011;8328;52.206;21.006;2024-01-11T02:51:57;144.27;;;41.03;;
16436;SDS011;8328;52.206;21.006;2024-01-11T02:54:23;44.10;;;19.27;;
16436;SDS011;8328;52.206;21.006;2024-01-11T02:56:49;23.73;;;9.90;;
16436;SDS011;8328;52.206;21.006;2024-01-11T02:59:15;83.25;;;35.38;;
16436;SDS011;8328;52.206;21.006;2024-01-11T03:01:41;88.37;;;36.73;;
16436;SDS011;8328;52.206;21.006;2024-01-11T03:04:09;27.13;;;11.07;;
16436;SDS011;8328;52.206;21.006;2024-01-11T03:06:44;24.35;;;10.02;;
16436;SDS011;8328;52.206;21.006;2024-01-11T03:09:15;24.70;;;10.82;;
16436;SDS011;8328;52.206;21.006;2024-01-11T03:11:41;18.43;;;7.77;;
16436;SDS011;8328;52.206;21.006;2024-01-11T03:14:13;28.38;;;11.48;;
16436;SDS011;8328;52.206;21.006;2024-01-11T03:19:28;30.02;;;12.85;;
16436;SDS011;8328;52.206;21.006;2024-01-11T03:22:30;25.38;;;11.85;;
16436;SDS011;8328;52.206;21.006;2024-01-11T03:25:07;44.73;;;13.97;;
16436;SDS011;8328;52.206;21.006;2024-01-11T03:27:57;12.93;;;5.72;;
16436;SDS011;8328;52.206;21.006;2024-01-11T03:30:57;26.17;;;10.55;;
16436;SDS011;8328;52.206;21.006;2024-01-11T03:33:23;40.95;;;12.98;;
16436;SDS011;8328;52.206;21.006;2024-01-11T03:35:48;23.60;;;9.83;;
16436;SDS011;8328;52.206;21.006;2024-01-11T03:38:18;44.05;;;16.15;;
16436;SDS011;8328;52.206;21.006;2024-01-11T03:40:43;19.23;;;9.30;;
16436;SDS011;8328;52.206;21.006;2024-01-11T03:43:09;22.30;;;10.67;;
16436;SDS011;8328;52.206;21.006;2024-01-11T03:45:35;32.50;;;11.63;;
16436;SDS011;8328;52.206;21.006;2024-01-11T03:48:04;39.53;;;15.83;;
16436;SDS011;8328;52.206;21.006;2024-01-11T03:50:30;41.13;;;14.57;;
16436;SDS011;8328;52.206;21.006;2024-01-11T03:52:58;39.08;;;15.85;;
16436;SDS011;8328;52.206;21.006;2024-01-11T03:55:31;26.27;;;11.50;;
16436;SDS011;8328;52.206;21.006;2024-01-11T03:57:57;27.67;;;11.63;;
16436;SDS011;8328;52.206;21.006;2024-01-11T04:00:23;17.23;;;6.30;;
16436;SDS011;8328;52.206;21.006;2024-01-11T04:02:48;20.13;;;8.47;;
16436;SDS011;8328;52.206;21.006;2024-01-11T04:05:14;30.43;;;10.17;;
16436;SDS011;8328;52.206;21.006;2024-01-11T04:07:41;41.58;;;14.20;;
16436;SDS011;8328;52.206;21.006;2024-01-11T04:10:07;166.60;;;48.38;;
16436;SDS011;8328;52.206;21.006;2024-01-11T04:12:36;50.92;;;24.73;;
16436;SDS011;8328;52.206;21.006;2024-01-11T04:15:02;23.05;;;7.57;;
16436;SDS011;8328;52.206;21.006;2024-01-11T04:17:29;19.75;;;7.10;;
16436;SDS011;8328;52.206;21.006;2024-01-11T04:19:54;54.73;;;28.13;;
16436;SDS011;8328;52.206;21.006;2024-01-11T04:22:20;34.33;;;18.83;;
16436;SDS011;8328;52.206;21.006;2024-01-11T04:24:53;80.43;;;37.25;;
16436;SDS011;8328;52.206;21.006;2024-01-11T04:27:18;33.30;;;17.90;;
16436;SDS011;8328;52.206;21.006;2024-01-11T04:29:45;31.40;;;14.38;;
16436;SDS011;8328;52.206;21.006;2024-01-11T04:32:13;42.33;;;18.55;;
16436;SDS011;8328;52.206;21.006;2024-01-11T04:34:39;39.33;;;20.57;;
16436;SDS011;8328;52.206;21.006;2024-01-11T04:37:05;45.93;;;18.23;;
16436;SDS011;8328;52.206;21.006;2024-01-11T04:39:33;38.92;;;13.98;;
16436;SDS011;8328;52.206;21.006;2024-01-11T04:41:58;37.42;;;15.20;;
16436;SDS011;8328;52.206;21.006;2024-01-11T04:44:25;36.45;;;15.07;;
16436;SDS011;8328;52.206;21.006;2024-01-11T04:46:51;30.40;;;11.02;;
16436;SDS011;8328;52.206;21.006;2024-01-11T04:49:17;37.00;;;13.40;;
16436;SDS011;8328;52.206;21.006;2024-01-11T04:51:43;26.23;;;10.83;;
16436;SDS011;8328;52.206;21.006;2024-01-11T04:54:09;34.17;;;14.30;;
16436;SDS011;8328;52.206;21.006;2024-01-11T04:56:35;40.00;;;15.27;;
16436;SDS011;8328;52.206;21.006;2024-01-11T04:59:00;30.10;;;10.07;;
16436;SDS011;8328;52.206;21.006;2024-01-11T05:01:26;22.87;;;9.07;;
16436;SDS011;8328;52.206;21.006;2024-01-11T05:03:55;38.17;;;14.43;;
16436;SDS011;8328;52.206;21.006;2024-01-11T05:06:21;37.70;;;12.40;;
16436;SDS011;8328;52.206;21.006;2024-01-11T05:08:50;89.90;;;28.75;;
16436;SDS011;8328;52.206;21.006;2024-01-11T05:11:20;88.20;;;39.95;;
16436;SDS011;8328;52.206;21.006;2024-01-11T05:13:48;165.52;;;47.58;;
16436;SDS011;8328;52.206;21.006;2024-01-11T05:18:46;62.58;;;31.02;;
16436;SDS011;8328;52.206;21.006;2024-01-11T05:21:12;84.10;;;38.57;;
16436;SDS011;8328;52.206;21.006;2024-01-11T05:23:38;77.83;;;37.93;;
16436;SDS011;8328;52.206;21.006;2024-01-11T05:26:05;76.57;;;34.25;;
16436;SDS011;8328;52.206;21.006;2024-01-11T05:28:31;66.37;;;31.87;;
16436;SDS011;8328;52.206;21.006;2024-01-11T05:30:57;66.03;;;33.07;;
16436;SDS011;8328;52.206;21.006;2024-01-11T05:33:23;60.67;;;31.55;;
16436;SDS011;8328;52.206;21.006;2024-01-11T05:35:48;74.13;;;34.90;;
16436;SDS011;8328;52.206;21.006;2024-01-11T05:38:16;167.13;;;45.35;;
16436;SDS011;8328;52.206;21.006;2024-01-11T05:40:43;149.95;;;46.90;;
16436;SDS011;8328;52.206;21.006;2024-01-11T05:43:09;137.50;;;42.30;;
16436;SDS011;8328;52.206;21.006;2024-01-11T05:45:35;141.53;;;46.90;;
16436;SDS011;8328;52.206;21.006;2024-01-11T05:48:00;113.80;;;40.87;;
16436;SDS011;8328;52.206;21.006;2024-01-11T05:50:26;126.53;;;44.30;;
16436;SDS011;8328;52.206;21.006;2024-01-11T05:52:52;168.17;;;47.53;;
16436;SDS011;8328;52.206;21.006;2024-01-11T05:55:28;142.00;;;43.58;;
16436;SDS011;8328;52.206;21.006;2024-01-11T05:57:54;127.33;;;39.87;;
16436;SDS011;8328;52.206;21.006;2024-01-11T06:00:20;236.60;;;52.63;;
16436;SDS011;8328;52.206;21.006;2024-01-11T06:02:51;209.90;;;48.90;;
16436;SDS011;8328;52.206;21.006;2024-01-11T06:05:23;408.25;;;59.97;;
16436;SDS011;8328;52.206;21.006;2024-01-11T06:07:55;367.00;;;57.55;;
16436;SDS011;8328;52.206;21.006;2024-01-11T06:10:48;352.10;;;56.88;;
16436;SDS011;8328;52.206;21.006;2024-01-11T06:13:14;348.63;;;50.97;;
16436;SDS011;8328;52.206;21.006;2024-01-11T06:15:40;424.73;;;58.00;;
16436;SDS011;8328;52.206;21.006;2024-01-11T06:18:05;429.60;;;57.80;;
16436;SDS011;8328;52.206;21.006;2024-01-11T06:20:31;434.67;;;59.13;;
16436;SDS011;8328;52.206;21.006;2024-01-11T06:23:00;428.73;;;54.40;;
16436;SDS011;8328;52.206;21.006;2024-01-11T06:25:26;400.75;;;53.15;;
16436;SDS011;8328;52.206;21.006;2024-01-11T06:27:52;404.88;;;57.17;;
16436;SDS011;8328;52.206;21.006;2024-01-11T06:30:18;387.77;;;56.43;;
16436;SDS011;8328;52.206;21.006;2024-01-11T06:32:44;335.00;;;57.53;;
16436;SDS011;8328;52.206;21.006;2024-01-11T06:35:10;82.83;;;33.37;;
16436;SDS011;8328;52.206;21.006;2024-01-11T06:37:36;337.13;;;52.43;;
16436;SDS011;8328;52.206;21.006;2024-01-11T06:40:04;19.33;;;8.65;;
16436;SDS011;8328;52.206;21.006;2024-01-11T06:42:33;16.67;;;8.50;;
16436;SDS011;8328;52.206;21.006;2024-01-11T06:44:59;14.45;;;5.85;;
16436;SDS011;8328;52.206;21.006;2024-01-11T06:47:25;18.33;;;8.30;;
16436;SDS011;8328;52.206;21.006;2024-01-11T06:49:51;12.75;;;5.50;;
16436;SDS011;8328;52.206;21.006;2024-01-11T06:52:16;14.33;;;7.27;;
16436;SDS011;8328;52.206;21.006;2024-01-11T06:54:42;15.33;;;7.10;;
16436;SDS011;8328;52.206;21.006;2024-01-11T06:57:08;9.00;;;5.77;;
16436;SDS011;8328;52.206;21.006;2024-01-11T06:59:34;10.27;;;4.53;;
16436;SDS011;8328;52.206;21.006;2024-01-11T07:02:00;17.42;;;8.10;;
16436;SDS011;8328;52.206;21.006;2024-01-11T07:04:26;32.75;;;11.60;;
16436;SDS011;8328;52.206;21.006;2024-01-11T07:06:55;95.70;;;30.98;;
16436;SDS011;8328;52.206;21.006;2024-01-11T07:09:21;61.43;;;30.93;;
16436;SDS011;8328;52.206;21.006;2024-01-11T07:11:47;40.43;;;23.00;;
16436;SDS011;8328;52.206;21.006;2024-01-11T07:14:16;25.20;;;19.95;;
16436;SDS011;8328;52.206;21.006;2024-01-11T07:16:42;18.10;;;9.47;;
16436;SDS011;8328;52.206;21.006;2024-01-11T07:19:10;39.50;;;17.20;;
16436;SDS011;8328;52.206;21.006;2024-01-11T07:21:36;24.58;;;8.43;;
16436;SDS011;8328;52.206;21.006;2024-01-11T07:24:02;23.30;;;7.57;;
16436;SDS011;8328;52.206;21.006;2024-01-11T07:26:29;34.10;;;12.48;;
16436;SDS011;8328;52.206;21.006;2024-01-11T07:28:58;23.02;;;10.25;;
16436;SDS011;8328;52.206;21.006;2024-01-11T07:31:33;31.55;;;13.35;;
16436;SDS011;8328;52.206;21.006;2024-01-11T07:33:59;21.37;;;11.07;;
16436;SDS011;8328;52.206;21.006;2024-01-11T07:36:25;22.70;;;11.40;;
16436;SDS011;8328;52.206;21.006;2024-01-11T07:38:51;27.40;;;11.97;;
16436;SDS011;8328;52.206;21.006;2024-01-11T07:43:49;28.10;;;12.07;;
16436;SDS011;8328;52.206;21.006;2024-01-11T07:46:15;26.77;;;12.53;;
16436;SDS011;8328;52.206;21.006;2024-01-11T07:48:41;38.72;;;15.68;;
16436;SDS011;8328;52.206;21.006;2024-01-11T07:51:07;36.00;;;14.07;;
16436;SDS011;8328;52.206;21.006;2024-01-11T07:53:33;24.30;;;11.63;;
16436;SDS011;8328;52.206;21.006;2024-01-11T07:55:59;20.65;;;9.85;;
16436;SDS011;8328;52.206;21.006;2024-01-11T07:58:26;45.17;;;22.20;;
16436;SDS011;8328;52.206;21.006;2024-01-11T08:00:52;39.28;;;22.80;;
16436;SDS011;8328;52.206;21.006;2024-01-11T08:03:21;33.35;;;18.80;;
16436;SDS011;8328;52.206;21.006;2024-01-11T08:05:47;48.25;;;20.42;;
16436;SDS011;8328;52.206;21.006;2024-01-11T08:08:15;35.92;;;22.58;;
16436;SDS011;8328;52.206;21.006;2024-01-11T08:10:41;29.17;;;20.75;;
16436;SDS011;8328;52.206;21.006;2024-01-11T08:13:08;36.90;;;22.08;;
16436;SDS011;8328;52.206;21.006;2024-01-11T08:15:34;34.50;;;23.83;;
16436;SDS011;8328;52.206;21.006;2024-01-11T08:18:03;42.25;;;22.00;;
16436;SDS011;8328;52.206;21.006;2024-01-11T08:20:30;44.50;;;28.10;;
16436;SDS011;8328;52.206;21.006;2024-01-11T08:22:55;46.30;;;27.23;;
16436;SDS011;8328;52.206;21.006;2024-01-11T08:25:21;41.47;;;27.23;;
16436;SDS011;8328;52.206;21.006;2024-01-11T08:27:48;36.63;;;24.63;;
16436;SDS011;8328;52.206;21.006;2024-01-11T08:30:14;38.33;;;25.20;;
16436;SDS011;8328;52.206;21.006;2024-01-11T08:32:40;49.47;;;26.45;;
16436;SDS011;8328;52.206;21.006;2024-01-11T08:35:09;44.47;;;27.63;;
16436;SDS011;8328;52.206;21.006;2024-01-11T08:37:39;57.28;;;32.63;;
16436;SDS011;8328;52.206;21.006;2024-01-11T08:40:05;40.17;;;28.00;;
16436;SDS011;8328;52.206;21.006;2024-01-11T08:42:32;45.08;;;26.17;;
16436;SDS011;8328;52.206;21.006;2024-01-11T08:44:58;50.03;;;26.02;;
16436;SDS011;8328;52.206;21.006;2024-01-11T08:47:23;39.43;;;22.93;;
16436;SDS011;8328;52.206;21.006;2024-01-11T08:49:50;35.78;;;23.00;;
16436;SDS011;8328;52.206;21.006;2024-01-11T08:52:16;44.40;;;24.42;;
16436;SDS011;8328;52.206;21.006;2024-01-11T08:54:42;45.92;;;25.25;;
16436;SDS011;8328;52.206;21.006;2024-01-11T08:57:08;45.80;;;24.20;;
16436;SDS011;8328;52.206;21.006;2024-01-11T08:59:34;64.53;;;31.45;;
16436;SDS011;8328;52.206;21.006;2024-01-11T09:02:00;38.78;;;23.85;;
16436;SDS011;8328;52.206;21.006;2024-01-11T09:04:26;30.20;;;22.00;;
16436;SDS011;8328;52.206;21.006;2024-01-11T09:06:54;49.47;;;29.55;;
16436;SDS011;8328;52.206;21.006;2024-01-11T09:09:23;48.10;;;28.33;;
16436;SDS011;8328;52.206;21.006;2024-01-11T09:11:49;39.55;;;25.20;;
16436;SDS011;8328;52.206;21.006;2024-01-11T09:14:16;456.45;;;73.90;;
16436;SDS011;8328;52.206;21.006;2024-01-11T09:16:42;448.88;;;79.13;;
16436;SDS011;8328;52.206;21.006;2024-01-11T09:19:09;437.67;;;90.97;;
16436;SDS011;8328;52.206;21.006;2024-01-11T09:21:36;460.98;;;90.63;;
16436;SDS011;8328;52.206;21.006;2024-01-11T09:24:02;324.27;;;62.72;;
16436;SDS011;8328;52.206;21.006;2024-01-11T09:26:28;441.75;;;85.82;;
16436;SDS011;8328;52.206;21.006;2024-01-11T09:28:54;468.98;;;77.57;;
16436;SDS011;8328;52.206;21.006;2024-01-11T09:31:20;460.65;;;68.55;;
16436;SDS011;8328;52.206;21.006;2024-01-11T09:33:46;464.92;;;87.82;;
16436;SDS011;8328;52.206;21.006;2024-01-11T09:36:13;453.70;;;84.50;;
16436;SDS011;8328;52.206;21.006;2024-01-11T09:38:39;446.33;;;81.32;;
16436;SDS011;8328;52.206;21.006;2024-01-11T09:41:06;448.55;;;102.60;;
16436;SDS011;8328;52.206;21.006;2024-01-11T09:43:33;464.67;;;92.70;;
16436;SDS011;8328;52.206;21.006;2024-01-11T09:46:01;461.05;;;107.78;;
16436;SDS011;8328;52.206;21.006;2024-01-11T09:48:29;460.00;;;73.70;;
16436;SDS011;8328;52.206;21.006;2024-01-11T09:50:55;456.55;;;71.03;;
16436;SDS011;8328;52.206;21.006;2024-01-11T09:53:22;464.48;;;74.45;;
16436;SDS011;8328;52.206;21.006;2024-01-11T09:55:51;491.77;;;115.75;;
16436;SDS011;8328;52.206;21.006;2024-01-11T09:58:18;496.48;;;117.13;;
16436;SDS011;8328;52.206;21.006;2024-01-11T10:00:44;503.30;;;131.35;;
16436;SDS011;8328;52.206;21.006;2024-01-11T10:03:12;483.67;;;91.57;;
16436;SDS011;8328;52.206;21.006;2024-01-11T10:05:38;487.33;;;101.72;;
16436;SDS011;8328;52.206;21.006;2024-01-11T10:08:05;463.67;;;95.78;;
16436;SDS011;8328;52.206;21.006;2024-01-11T10:10:32;528.33;;;123.32;;
16436;SDS011;8328;52.206;21.006;2024-01-11T10:12:58;481.90;;;101.97;;
16436;SDS011;8328;52.206;21.006;2024-01-11T10:15:25;498.27;;;115.85;;
16436;SDS011;8328;52.206;21.006;2024-01-11T10:17:51;467.90;;;83.43;;
16436;SDS011;8328;52.206;21.006;2024-01-11T10:20:17;477.58;;;84.70;;
16436;SDS011;8328;52.206;21.006;2024-01-11T10:22:48;475.77;;;88.78;;
16436;SDS011;8328;52.206;21.006;2024-01-11T10:25:16;480.08;;;95.05;;
16436;SDS011;8328;52.206;21.006;2024-01-11T10:27:45;478.83;;;89.82;;
16436;SDS011;8328;52.206;21.006;2024-01-11T10:30:15;466.33;;;98.20;;
16436;SDS011;8328;52.206;21.006;2024-01-11T10:32:44;454.40;;;89.05;;
16436;SDS011;8328;52.206;21.006;2024-01-11T10:35:10;463.63;;;83.45;;
16436;SDS011;8328;52.206;21.006;2024-01-11T10:37:36;487.13;;;100.20;;
16436;SDS011;8328;52.206;21.006;2024-01-11T10:40:05;475.55;;;98.50;;
16436;SDS011;8328;52.206;21.006;2024-01-11T10:42:44;454.63;;;92.07;;
16436;SDS011;8328;52.206;21.006;2024-01-11T10:45:17;476.58;;;105.70;;
16436;SDS011;8328;52.206;21.006;2024-01-11T10:48:02;496.17;;;114.72;;
16436;SDS011;8328;52.206;21.006;2024-01-11T10:50:34;468.52;;;103.85;;
16436;SDS011;8328;52.206;21.006;2024-01-11T10:55:28;494.10;;;137.07;;
16436;SDS011;8328;52.206;21.006;2024-01-11T10:57:55;489.20;;;130.75;;
16436;SDS011;8328;52.206;21.006;2024-01-11T11:00:23;506.40;;;124.25;;
16436;SDS011;8328;52.206;21.006;2024-01-11T11:02:50;498.73;;;115.53;;
16436;SDS011;8328;52.206;21.006;2024-01-11T11:05:17;479.52;;;111.47;;
16436;SDS011;8328;52.206;21.006;2024-01-11T11:07:44;480.00;;;97.72;;
16436;SDS011;8328;52.206;21.006;2024-01-11T11:10:10;463.45;;;78.13;;
16436;SDS011;8328;52.206;21.006;2024-01-11T11:12:38;480.08;;;89.50;;
16436;SDS011;8328;52.206;21.006;2024-01-11T11:15:06;478.85;;;83.43;;
16436;SDS011;8328;52.206;21.006;2024-01-11T11:17:32;492.60;;;95.57;;
16436;SDS011;8328;52.206;21.006;2024-01-11T11:19:59;463.30;;;81.20;;
16436;SDS011;8328;52.206;21.006;2024-01-11T11:22:26;467.92;;;86.07;;
16436;SDS011;8328;52.206;21.006;2024-01-11T11:25:11;501.92;;;135.77;;
16436;SDS011;8328;52.206;21.006;2024-01-11T11:27:49;498.27;;;101.75;;
16436;SDS011;8328;52.206;21.006;2024-01-11T11:30:18;494.30;;;106.95;;
16436;SDS011;8328;52.206;21.006;2024-01-11T11:35:05;523.58;;;123.78;;
16436;SDS011;8328;52.206;21.006;2024-01-11T11:37:33;523.05;;;126.60;;
16436;SDS011;8328;52.206;21.006;2024-01-11T11:42:25;495.40;;;92.00;;
16436;SDS011;8328;52.206;21.006;2024-01-11T11:44:51;503.33;;;95.30;;
16436;SDS011;8328;52.206;21.006;2024-01-11T11:47:23;480.75;;;89.45;;
16436;SDS011;8328;52.206;21.006;2024-01-11T11:50:06;490.27;;;92.32;;
16436;SDS011;8328;52.206;21.006;2024-01-11T11:54:55;478.80;;;90.60;;
16436;SDS011;8328;52.206;21.006;2024-01-11T11:57:22;484.58;;;98.65;;
16436;SDS011;8328;52.206;21.006;2024-01-11T11:59:49;502.52;;;105.63;;
16436;SDS011;8328;52.206;21.006;2024-01-11T12:02:17;479.75;;;106.20;;
16436;SDS011;8328;52.206;21.006;2024-01-11T12:04:46;495.75;;;116.25;;
16436;SDS011;8328;52.206;21.006;2024-01-11T12:07:13;468.40;;;81.55;;
16436;SDS011;8328;52.206;21.006;2024-01-11T12:09:40;522.47;;;114.85;;
16436;SDS011;8328;52.206;21.006;2024-01-11T12:12:06;503.27;;;113.72;;
16436;SDS011;8328;52.206;21.006;2024-01-11T12:14:33;493.23;;;98.07;;
16436;SDS011;8328;52.206;21.006;2024-01-11T12:16:59;480.83;;;96.70;;
16436;SDS011;8328;52.206;21.006;2024-01-11T12:19:25;482.77;;;94.07;;
16436;SDS011;8328;52.206;21.006;2024-01-11T12:21:52;505.23;;;95.15;;
16436;SDS011;8328;52.206;21.006;2024-01-11T12:24:19;515.17;;;102.38;;
16436;SDS011;8328;52.206;21.006;2024-01-11T12:26:48;480.10;;;82.00;;
16436;SDS011;8328;52.206;21.006;2024-01-11T12:29:19;498.35;;;84.80;;
16436;SDS011;8328;52.206;21.006;2024-01-11T12:31:45;487.15;;;88.90;;
16436;SDS011;8328;52.206;21.006;2024-01-11T12:34:11;480.55;;;83.68;;
16436;SDS011;8328;52.206;21.006;2024-01-11T12:36:38;470.85;;;79.32;;
16436;SDS011;8328;52.206;21.006;2024-01-11T12:39:04;481.90;;;86.57;;
16436;SDS011;8328;52.206;21.006;2024-01-11T12:41:31;496.45;;;94.50;;
16436;SDS011;8328;52.206;21.006;2024-01-11T12:43:58;493.58;;;92.20;;
16436;SDS011;8328;52.206;21.006;2024-01-11T12:46:24;471.02;;;84.97;;
16436;SDS011;8328;52.206;21.006;2024-01-11T12:48:50;451.85;;;89.65;;
16436;SDS011;8328;52.206;21.006;2024-01-11T12:51:17;414.50;;;86.18;;
16436;SDS011;8328;52.206;21.006;2024-01-11T12:53:46;452.23;;;91.50;;
16436;SDS011;8328;52.206;21.006;2024-01-11T12:56:14;460.08;;;89.20;;
16436;SDS011;8328;52.206;21.006;2024-01-11T12:58:41;449.95;;;83.32;;
16436;SDS011;8328;52.206;21.006;2024-01-11T13:01:07;442.70;;;88.18;;
16436;SDS011;8328;52.206;21.006;2024-01-11T13:03:34;435.27;;;91.03;;
16436;SDS011;8328;52.206;21.006;2024-01-11T13:06:01;429.40;;;86.25;;
16436;SDS011;8328;52.206;21.006;2024-01-11T13:08:29;492.88;;;98.07;;
16436;SDS011;8328;52.206;21.006;2024-01-11T13:10:56;490.02;;;91.50;;
16436;SDS011;8328;52.206;21.006;2024-01-11T13:13:22;451.08;;;85.53;;
16436;SDS011;8328;52.206;21.006;2024-01-11T13:15:48;470.95;;;83.32;;
16436;SDS011;8328;52.206;21.006;2024-01-11T13:18:16;471.75;;;90.03;;
16436;SDS011;8328;52.206;21.006;2024-01-11T13:20:42;470.40;;;79.65;;
16436;SDS011;8328;52.206;21.006;2024-01-11T13:25:38;445.55;;;94.65;;
16436;SDS011;8328;52.206;21.006;2024-01-11T13:28:05;502.05;;;104.32;;
16436;SDS011;8328;52.206;21.006;2024-01-11T13:30:31;441.70;;;87.30;;
16436;SDS011;8328;52.206;21.006;2024-01-11T13:32:58;471.52;;;86.88;;
16436;SDS011;8328;52.206;21.006;2024-01-11T13:35:24;489.92;;;91.30;;
16436;SDS011;8328;52.206;21.006;2024-01-11T13:37:51;486.45;;;89.45;;
16436;SDS011;8328;52.206;21.006;2024-01-11T13:40:17;476.70;;;85.20;;
16436;SDS011;8328;52.206;21.006;2024-01-11T13:42:43;463.17;;;87.50;;
16436;SDS011;8328;52.206;21.006;2024-01-11T13:45:09;460.73;;;86.55;;
16436;SDS011;8328;52.206;21.006;2024-01-11T13:47:36;493.08;;;94.35;;
16436;SDS011;8328;52.206;21.006;2024-01-11T13:50:02;464.25;;;87.05;;
16436;SDS011;8328;52.206;21.006;2024-01-11T13:52:28;506.33;;;99.53;;
16436;SDS011;8328;52.206;21.006;2024-01-11T13:54:54;492.33;;;93.05;;
16436;SDS011;8328;52.206;21.006;2024-01-11T13:57:20;475.50;;;83.75;;
16436;SDS011;8328;52.206;21.006;2024-01-11T13:59:46;491.60;;;102.10;;
16436;SDS011;8328;52.206;21.006;2024-01-11T14:02:12;496.13;;;96.00;;
16436;SDS011;8328;52.206;21.006;2024-01-11T14:04:39;481.80;;;88.65;;
16436;SDS011;8328;52.206;21.006;2024-01-11T14:07:05;497.92;;;103.28;;
16436;SDS011;8328;52.206;21.006;2024-01-11T14:09:31;490.65;;;89.38;;
16436;SDS011;8328;52.206;21.006;2024-01-11T14:11:57;463.80;;;87.72;;
16436;SDS011;8328;52.206;21.006;2024-01-11T14:14:23;487.75;;;99.88;;
16436;SDS011;8328;52.206;21.006;2024-01-11T14:16:49;476.27;;;84.93;;
16436;SDS011;8328;52.206;21.006;2024-01-11T14:19:16;477.95;;;85.18;;
16436;SDS011;8328;52.206;21.006;2024-01-11T14:21:42;471.92;;;91.97;;
16436;SDS011;8328;52.206;21.006;2024-01-11T14:24:09;479.83;;;93.10;;
16436;SDS011;8328;52.206;21.006;2024-01-11T14:26:35;477.05;;;91.45;;
16436;SDS011;8328;52.206;21.006;2024-01-11T14:29:01;497.88;;;117.63;;
16436;SDS011;8328;52.206;21.006;2024-01-11T14:31:28;473.15;;;105.15;;
16436;SDS011;8328;52.206;21.006;2024-01-11T14:33:54;479.63;;;113.60;;